createdAt,value
2019-05-02T18:22:48.923Z,37.38
2019-05-02T18:25:21.632Z,32.60
2019-05-02T18:27:51.640Z,37.17
2019-05-02T18:30:26.759Z,38.83
2019-05-02T18:32:57.754Z,43.38
2019-05-02T18:35:26.221Z,39.05
2019-05-02T18:37:57.314Z,37.85
2019-05-02T18:40:38.751Z,53.10
2019-05-02T18:43:08.886Z,36.47
2019-05-02T18:45:38.964Z,42.27
2019-05-02T18:48:09.175Z,42.67
2019-05-02T18:50:46.366Z,39.38
2019-05-02T18:53:13.791Z,42.08
2019-05-02T18:55:44.351Z,55.28
2019-05-02T18:58:14.635Z,42.53
2019-05-02T19:00:44.892Z,44.30
2019-05-02T19:03:17.308Z,41.05
2019-05-02T19:05:51.654Z,44.95
2019-05-02T19:08:29.002Z,34.38
2019-05-02T19:11:04.374Z,41.85
2019-05-02T19:15:53.435Z,36.58
2019-05-02T19:18:23.815Z,37.17
2019-05-02T19:20:57.577Z,36.80
2019-05-02T19:23:27.135Z,32.17
2019-05-02T19:26:07.021Z,36.00
2019-05-02T19:28:36.741Z,36.77
2019-05-02T19:31:06.704Z,30.57
2019-05-02T19:33:37.592Z,30.32
2019-05-02T19:36:06.593Z,24.65
2019-05-02T19:38:36.762Z,33.33
2019-05-02T19:41:09.170Z,25.70
2019-05-02T19:43:40.328Z,32.35
2019-05-02T19:46:12.098Z,24.20
2019-05-02T19:48:43.066Z,29.35
2019-05-02T19:51:18.466Z,45.48
2019-05-02T19:53:45.021Z,34.20
2019-05-02T19:56:15.270Z,34.73
2019-05-02T19:58:48.299Z,28.65
2019-05-02T20:01:23.052Z,28.40
2019-05-02T20:03:52.096Z,31.02
2019-05-02T20:06:22.805Z,27.25
2019-05-02T20:08:58.900Z,28.32
2019-05-02T20:11:28.040Z,25.92
2019-05-02T20:14:00.647Z,23.45
2019-05-02T20:16:31.900Z,26.73
2019-05-02T20:19:02.170Z,21.23
2019-05-02T20:21:33.829Z,25.72
2019-05-02T20:24:08.863Z,16.25
2019-05-02T20:26:35.709Z,19.80
2019-05-02T20:29:05.906Z,16.48
2019-05-02T20:31:35.993Z,14.98
2019-05-02T20:34:06.186Z,11.43
2019-05-02T20:36:36.370Z,13.00
2019-05-02T20:39:08.068Z,10.05
2019-05-02T20:41:38.257Z,9.43
2019-05-02T20:44:08.394Z,13.03
2019-05-02T20:46:38.449Z,12.13
2019-05-02T20:49:08.502Z,10.20
2019-05-02T20:51:38.557Z,17.62
2019-05-02T20:54:08.749Z,16.05
2019-05-02T20:56:38.798Z,17.65
2019-05-02T20:59:08.870Z,14.95
2019-05-02T21:01:39.001Z,16.85
2019-05-02T21:04:09.089Z,12.07
2019-05-02T21:06:52.853Z,9.13
2019-05-02T21:09:24.501Z,12.40
2019-05-02T21:11:56.269Z,13.43
2019-05-02T21:14:26.497Z,9.23
2019-05-02T21:16:56.695Z,14.98
2019-05-02T21:19:26.931Z,12.50
2019-05-02T21:21:57.713Z,12.37
2019-05-02T21:24:27.897Z,15.43
2019-05-02T21:26:58.475Z,12.18
2019-05-02T21:29:28.549Z,15.50
2019-05-02T21:31:58.682Z,10.23
2019-05-02T21:34:28.964Z,12.20
2019-05-02T21:36:59.167Z,16.12
2019-05-02T21:39:29.335Z,11.80
2019-05-02T21:41:59.529Z,11.25
2019-05-02T21:44:31.495Z,10.82
2019-05-02T21:47:02.859Z,15.63
2019-05-02T21:49:47.004Z,8.25
2019-05-02T21:52:24.958Z,11.45
2019-05-02T21:55:02.819Z,15.45
2019-05-02T21:57:32.933Z,12.75
2019-05-02T22:00:03.193Z,12.95
2019-05-02T22:02:34.914Z,11.55
2019-05-02T22:05:06.618Z,18.07
2019-05-02T22:07:36.813Z,17.52
2019-05-02T22:10:07.832Z,18.82
2019-05-02T22:12:38.014Z,13.97
2019-05-02T22:15:09.881Z,16.10
2019-05-02T22:17:41.525Z,12.63
2019-05-02T22:20:12.394Z,14.35
2019-05-02T22:22:42.674Z,13.53
2019-05-02T22:25:12.910Z,10.50
2019-05-02T22:27:43.085Z,17.87
2019-05-02T22:30:13.370Z,10.20
2019-05-02T22:32:43.561Z,14.25
2019-05-02T22:35:13.636Z,21.20
2019-05-02T22:37:45.357Z,13.98
2019-05-02T22:40:16.714Z,16.07
2019-05-02T22:42:46.777Z,16.90
2019-05-02T22:45:16.866Z,13.78
2019-05-02T22:47:47.048Z,20.17
2019-05-02T22:50:17.162Z,13.30
2019-05-02T22:52:47.161Z,15.45
2019-05-02T22:55:17.180Z,18.00
2019-05-02T22:57:47.234Z,15.48
2019-05-02T23:00:17.303Z,16.80
2019-05-02T23:02:47.526Z,16.12
2019-05-02T23:05:17.703Z,22.05
2019-05-02T23:07:47.723Z,13.20
2019-05-02T23:10:17.844Z,16.27
2019-05-02T23:12:47.826Z,18.02
2019-05-02T23:15:17.882Z,14.55
2019-05-02T23:17:49.751Z,18.92
2019-05-02T23:20:21.798Z,16.57
2019-05-02T23:22:52.357Z,17.67
2019-05-02T23:25:42.139Z,20.92
2019-05-02T23:28:16.621Z,21.57
2019-05-02T23:30:46.797Z,19.73
2019-05-02T23:33:16.857Z,16.77
2019-05-02T23:35:46.929Z,15.23
2019-05-02T23:38:16.935Z,12.05
2019-05-02T23:40:46.934Z,16.70
2019-05-02T23:43:17.177Z,14.85
2019-05-02T23:45:47.238Z,13.08
2019-05-02T23:48:17.321Z,21.90
2019-05-02T23:50:48.414Z,9.60
2019-05-02T23:53:18.562Z,13.03
2019-05-02T23:55:48.639Z,12.28
2019-05-02T23:58:18.825Z,14.40
